Time,TemperatureF,DewpointF,PressureIn,WindDirection,WindDirectionDegrees,WindSpeedMPH,WindSpeedGustMPH,Humidity,HourlyPrecipIn,Conditions,Clouds,dailyrainin,SolarRadiationWatts/m^2,SoftwareType,DateUTC
2013-10-31 00:01:00,32.1,29.8,29.74,SSW,197,4.0,5.0,91,0.00,,SCT029,0.00,0.00,VWS V14.00,2013-10-31 05:01:00,
2013-10-31 00:06:00,31.9,29.6,29.73,SSW,197,4.0,5.0,91,0.00,,SCT029,0.00,0.00,VWS V14.00,2013-10-31 05:06:00,
2013-10-31 00:11:00,31.8,29.8,29.73,SSW,197,3.0,6.0,92,0.00,,SCT029,0.00,0.00,VWS V14.00,2013-10-31 05:11:00,
2013-10-31 00:16:00,31.7,29.6,29.73,SSW,197,3.0,6.0,92,0.00,,SCT029,0.00,0.00,VWS V14.00,2013-10-31 05:16:00,
2013-10-31 00:21:00,31.6,29.5,29.73,SSW,197,4.0,6.0,92,0.00,,SCT029,0.00,0.00,VWS V14.00,2013-10-31 05:21:00,
2013-10-31 00:26:00,31.5,29.5,29.72,SSW,197,3.0,6.0,92,0.00,,SCT029,0.00,0.00,VWS V14.00,2013-10-31 05:26:00,
2013-10-31 00:31:00,31.5,29.5,29.72,SSW,197,5.0,5.0,92,0.00,,SCT029,0.00,0.00,VWS V14.00,2013-10-31 05:31:00,
2013-10-31 00:36:00,31.4,29.6,29.72,SSW,197,4.0,5.0,93,0.00,,SCT029,0.00,0.00,VWS V14.00,2013-10-31 05:36:00,
2013-10-31 00:41:00,31.3,29.2,29.71,SSW,197,5.0,6.0,92,0.00,,CLR,0.00,0.00,VWS V14.00,2013-10-31 05:41:00,
2013-10-31 00:46:00,31.1,29.0,29.71,SSW,197,4.0,6.0,92,0.00,,CLR,0.00,0.00,VWS V14.00,2013-10-31 05:46:00,
2013-10-31 00:51:00,31.0,29.2,29.71,SSW,197,5.0,6.0,93,0.00,,CLR,0.00,0.00,VWS V14.00,2013-10-31 05:51:00,
2013-10-31 00:56:00,31.0,29.2,29.71,SSW,197,5.0,6.0,93,0.00,,CLR,0.00,0.00,VWS V14.00,2013-10-31 05:56:00,
2013-10-31 01:01:00,30.9,29.1,29.71,SSW,197,4.0,6.0,93,0.00,,CLR,0.00,0.00,VWS V14.00,2013-10-31 06:01:00,
2013-10-31 01:06:00,30.8,29.0,29.70,SSW,197,4.0,6.0,93,0.00,,CLR,0.00,0.00,VWS V14.00,2013-10-31 06:06:00,
2013-10-31 01:11:00,30.6,28.8,29.70,SSW,197,5.0,6.0,93,0.00,,CLR,0.00,0.00,VWS V14.00,2013-10-31 06:11:00,
2013-10-31 01:16:00,30.6,28.8,29.70,SSW,197,5.0,6.0,93,0.00,,CLR,0.00,0.00,VWS V14.00,2013-10-31 06:16:00,
2013-10-31 01:22:00,30.5,28.7,29.70,SSW,197,4.0,6.0,93,0.00,,CLR,0.00,0.00,VWS V14.00,2013-10-31 06:22:00,
2013-10-31 01:27:00,30.4,28.6,29.70,SSW,197,6.0,6.0,93,0.00,,CLR,0.00,0.00,VWS V14.00,2013-10-31 06:27:00,
2013-10-31 01:32:00,30.3,28.5,29.70,SSW,197,5.0,7.0,93,0.00,,CLR,0.00,0.00,VWS V14.00,2013-10-31 06:32:00,
2013-10-31 01:37:00,30.3,28.5,29.70,SSW,197,6.0,7.0,93,0.00,,CLR,0.00,0.00,VWS V14.00,2013-10-31 06:37:00,
2013-10-31 01:42:00,30.2,28.4,29.69,SSW,197,7.0,7.0,93,0.00,,CLR,0.00,0.00,VWS V14.00,2013-10-31 06:42:00,
2013-10-31 01:47:00,30.3,28.5,29.69,SSW,197,7.0,7.0,93,0.00,,CLR,0.00,0.00,VWS V14.00,2013-10-31 06:47:00,
2013-10-31 01:52:00,30.3,28.8,29.69,SSW,198,5.0,7.0,94,0.00,,CLR,0.00,0.00,VWS V14.00,2013-10-31 06:52:00,
2013-10-31 01:57:00,30.3,28.8,29.69,SSW,198,4.0,7.0,94,0.00,,CLR,0.00,0.00,VWS V14.00,2013-10-31 06:57:00,
2013-10-31 02:02:00,30.1,28.3,29.69,SSW,198,3.0,6.0,93,0.00,,CLR,0.00,0.00,VWS V14.00,2013-10-31 07:02:00,
2013-10-31 02:07:00,29.8,28.0,29.69,SSW,198,3.0,6.0,93,0.00,,CLR,0.00,0.00,VWS V14.00,2013-10-31 07:07:00,
2013-10-31 02:12:00,29.5,27.7,29.69,SSW,198,2.0,6.0,93,0.00,,CLR,0.00,0.00,VWS V14.00,2013-10-31 07:12:00,
2013-10-31 02:17:00,29.2,27.4,29.69,SSW,198,2.0,6.0,93,0.00,,CLR,0.00,0.00,VWS V14.00,2013-10-31 07:17:00,
2013-10-31 02:22:00,29.0,27.2,29.69,SSW,198,6.0,6.0,93,0.00,,CLR,0.00,0.00,VWS V14.00,2013-10-31 07:22:00,
2013-10-31 02:27:00,28.5,26.7,29.69,SSW,198,4.0,6.0,93,0.00,,CLR,0.00,0.00,VWS V14.00,2013-10-31 07:27:00,
2013-10-31 02:32:00,28.4,26.6,29.69,SSW,198,6.0,6.0,93,0.00,,CLR,0.00,0.00,VWS V14.00,2013-10-31 07:32:00,
2013-10-31 02:37:00,28.4,26.9,29.68,SSW,198,3.0,6.0,94,0.00,,CLR,0.00,0.00,VWS V14.00,2013-10-31 07:37:00,
2013-10-31 02:42:00,28.4,26.9,29.68,SSW,198,2.0,6.0,94,0.00,,CLR,0.00,0.00,VWS V14.00,2013-10-31 07:42:00,
2013-10-31 02:47:00,28.3,26.8,29.67,SSW,198,3.0,6.0,94,0.00,,CLR,0.00,0.00,VWS V14.00,2013-10-31 07:47:00,
2013-10-31 02:52:00,28.2,26.7,29.67,SSW,198,2.0,6.0,94,0.00,,CLR,0.00,0.00,VWS V14.00,2013-10-31 07:52:00,
2013-10-31 02:57:00,28.2,26.7,29.67,SSW,198,1.0,6.0,94,0.00,,CLR,0.00,0.00,VWS V14.00,2013-10-31 07:57:00,
2013-10-31 03:02:00,28.2,26.7,29.67,SSW,198,2.0,2.0,94,0.00,,CLR,0.00,0.00,VWS V14.00,2013-10-31 08:02:00,
2013-10-31 03:07:00,28.3,26.8,29.67,SSW,198,3.0,3.0,94,0.00,,CLR,0.00,0.00,VWS V14.00,2013-10-31 08:07:00,
2013-10-31 03:12:00,28.4,26.9,29.67,SSW,198,3.0,4.0,94,0.00,,CLR,0.00,0.00,VWS V14.00,2013-10-31 08:12:00,
2013-10-31 03:17:00,28.3,26.8,29.66,SSW,198,4.0,5.0,94,0.00,,CLR,0.00,0.00,VWS V14.00,2013-10-31 08:17:00,
2013-10-31 03:22:00,28.4,26.9,29.66,SSW,198,4.0,5.0,94,0.00,,CLR,0.00,0.00,VWS V14.00,2013-10-31 08:22:00,
2013-10-31 03:27:00,28.6,27.4,29.66,SSW,198,4.0,6.0,95,0.00,,CLR,0.00,0.00,VWS V14.00,2013-10-31 08:27:00,
2013-10-31 03:32:00,28.4,26.9,29.66,SSW,198,3.0,5.0,94,0.00,,CLR,0.00,0.00,VWS V14.00,2013-10-31 08:32:00,
2013-10-31 03:37:00,28.2,26.7,29.66,SSW,198,4.0,6.0,94,0.00,,CLR,0.00,0.00,VWS V14.00,2013-10-31 08:37:00,
2013-10-31 03:42:00,28.3,26.8,29.66,SSW,198,4.0,6.0,94,0.00,,CLR,0.00,0.00,VWS V14.00,2013-10-31 08:42:00,
2013-10-31 03:47:00,28.1,26.6,29.66,SSW,198,4.0,6.0,94,0.00,,CLR,0.00,0.00,VWS V14.00,2013-10-31 08:47:00,
2013-10-31 03:52:00,27.7,26.2,29.66,SSW,198,4.0,6.0,94,0.00,,CLR,0.00,0.00,VWS V14.00,2013-10-31 08:52:00,
2013-10-31 03:57:00,27.5,26.0,29.66,SSW,198,5.0,6.0,94,0.00,,CLR,0.00,0.00,VWS V14.00,2013-10-31 08:57:00,
2013-10-31 04:02:00,27.6,26.1,29.66,SSW,198,3.0,4.0,94,0.00,,CLR,0.00,0.00,VWS V14.00,2013-10-31 09:02:00,
2013-10-31 04:07:00,27.5,26.0,29.65,SSW,198,4.0,4.0,94,0.00,,CLR,0.00,0.00,VWS V14.00,2013-10-31 09:07:00,
2013-10-31 04:12:00,27.4,25.9,29.65,SSW,198,3.0,5.0,94,0.00,,CLR,0.00,0.00,VWS V14.00,2013-10-31 09:12:00,
2013-10-31 04:18:00,27.5,26.0,29.65,SSW,198,2.0,5.0,94,0.00,,CLR,0.00,0.00,VWS V14.00,2013-10-31 09:18:00,
2013-10-31 04:23:00,27.4,25.9,29.65,SSW,198,3.0,5.0,94,0.00,,CLR,0.00,0.00,VWS V14.00,2013-10-31 09:23:00,
2013-10-31 04:28:00,27.4,26.2,29.65,SSW,198,5.0,5.0,95,0.00,,CLR,0.00,0.00,VWS V14.00,2013-10-31 09:28:00,
2013-10-31 04:33:00,27.3,25.8,29.65,SSW,198,4.0,4.0,94,0.00,,CLR,0.00,0.00,VWS V14.00,2013-10-31 09:33:00,
2013-10-31 04:38:00,27.4,26.2,29.65,SSW,198,3.0,4.0,95,0.00,,CLR,0.00,0.00,VWS V14.00,2013-10-31 09:38:00,
2013-10-31 04:43:00,27.2,25.7,29.65,SSW,198,3.0,5.0,94,0.00,,CLR,0.00,0.00,VWS V14.00,2013-10-31 09:43:00,
2013-10-31 04:48:00,27.1,25.6,29.64,SSW,198,4.0,5.0,94,0.00,,CLR,0.00,0.00,VWS V14.00,2013-10-31 09:48:00,
2013-10-31 04:54:00,27.0,25.5,29.64,SSW,198,3.0,5.0,94,0.00,,CLR,0.00,0.00,VWS V14.00,2013-10-31 09:54:00,
2013-10-31 04:59:00,26.9,25.7,29.64,SSW,198,5.0,5.0,95,0.00,,CLR,0.00,0.00,VWS V14.00,2013-10-31 09:59:00,
2013-10-31 05:04:00,27.0,25.8,29.64,SSW,198,5.0,5.0,95,0.00,,CLR,0.00,0.00,VWS V14.00,2013-10-31 10:04:00,
2013-10-31 05:09:00,27.1,25.9,29.64,SSW,198,3.0,5.0,95,0.00,,CLR,0.00,0.00,VWS V14.00,2013-10-31 10:09:00,
2013-10-31 05:14:00,27.0,25.8,29.64,SSW,198,3.0,5.0,95,0.00,,CLR,0.00,0.00,VWS V14.00,2013-10-31 10:14:00,
2013-10-31 05:19:00,26.9,25.7,29.64,SSW,198,4.0,5.0,95,0.00,,CLR,0.00,0.00,VWS V14.00,2013-10-31 10:19:00,
2013-10-31 05:24:00,27.0,25.8,29.64,SSW,198,4.0,7.0,95,0.00,,CLR,0.00,0.00,VWS V14.00,2013-10-31 10:24:00,
2013-10-31 05:29:00,27.1,25.9,29.64,SSW,198,4.0,7.0,95,0.00,,CLR,0.00,0.00,VWS V14.00,2013-10-31 10:29:00,
2013-10-31 05:34:00,27.1,25.9,29.64,SSW,198,5.0,6.0,95,0.00,,CLR,0.00,0.00,VWS V14.00,2013-10-31 10:34:00,
2013-10-31 05:39:00,27.0,25.8,29.64,SSW,198,5.0,6.0,95,0.00,,CLR,0.00,0.00,VWS V14.00,2013-10-31 10:39:00,
2013-10-31 05:44:00,26.7,25.5,29.64,SSW,198,4.0,6.0,95,0.00,,CLR,0.00,0.00,VWS V14.00,2013-10-31 10:44:00,
2013-10-31 05:49:00,26.6,25.1,29.64,SSW,198,4.0,6.0,94,0.00,,CLR,0.00,0.00,VWS V14.00,2013-10-31 10:49:00,
2013-10-31 05:54:00,26.5,25.0,29.64,SSW,198,5.0,6.0,94,0.00,,CLR,0.00,0.00,VWS V14.00,2013-10-31 10:54:00,
2013-10-31 05:59:00,26.3,24.8,29.64,SSW,198,5.0,6.0,94,0.00,,CLR,0.00,0.00,VWS V14.00,2013-10-31 10:59:00,
2013-10-31 06:04:00,26.4,24.9,29.64,SSW,198,5.0,6.0,94,0.00,,CLR,0.00,0.00,VWS V14.00,2013-10-31 11:04:00,
2013-10-31 06:09:00,26.7,25.2,29.64,SSW,198,5.0,7.0,94,0.00,,CLR,0.00,0.00,VWS V14.00,2013-10-31 11:09:00,
2013-10-31 06:14:00,26.7,25.5,29.64,SSW,198,4.0,7.0,95,0.00,,CLR,0.00,0.00,VWS V14.00,2013-10-31 11:14:00,
2013-10-31 06:19:00,26.7,25.2,29.64,SSW,198,5.0,7.0,94,0.00,,CLR,0.00,0.00,VWS V14.00,2013-10-31 11:19:00,
2013-10-31 06:24:00,26.7,25.2,29.64,SSW,198,4.0,7.0,94,0.00,,CLR,0.00,0.00,VWS V14.00,2013-10-31 11:24:00,
2013-10-31 06:29:00,26.7,25.2,29.64,SSW,198,5.0,5.0,94,0.00,,CLR,0.00,0.00,VWS V14.00,2013-10-31 11:29:00,
2013-10-31 06:34:00,26.4,24.9,29.64,SSW,198,5.0,6.0,94,0.00,,CLR,0.00,0.00,VWS V14.00,2013-10-31 11:34:00,
2013-10-31 06:39:00,26.4,24.9,29.64,SSW,198,6.0,6.0,94,0.00,,CLR,0.00,0.00,VWS V14.00,2013-10-31 11:39:00,
2013-10-31 06:45:00,26.6,25.1,29.64,SSW,202,6.0,7.0,94,0.00,,CLR,0.00,0.00,VWS V14.00,2013-10-31 11:45:00,
2013-10-31 06:50:00,26.6,25.1,29.64,SSW,204,5.0,7.0,94,0.00,,CLR,0.00,0.00,VWS V14.00,2013-10-31 11:50:00,
2013-10-31 06:55:00,26.7,25.2,29.64,SW,214,5.0,7.0,94,0.00,,CLR,0.00,0.00,VWS V14.00,2013-10-31 11:55:00,
2013-10-31 07:00:00,26.6,25.1,29.64,SW,215,5.0,6.0,94,0.00,,CLR,0.00,0.00,VWS V14.00,2013-10-31 12:00:00,
2013-10-31 07:05:00,26.6,25.1,29.64,SW,215,4.0,6.0,94,0.00,,CLR,0.00,0.00,VWS V14.00,2013-10-31 12:05:00,
2013-10-31 07:10:00,26.5,25.0,29.64,SW,215,3.0,6.0,94,0.00,,CLR,0.00,0.00,VWS V14.00,2013-10-31 12:10:00,
2013-10-31 07:15:00,26.4,24.9,29.64,SW,215,4.0,6.0,94,0.00,,CLR,0.00,0.00,VWS V14.00,2013-10-31 12:15:00,
2013-10-31 07:20:00,26.3,24.8,29.64,SW,215,5.0,6.0,94,0.00,,CLR,0.00,0.00,VWS V14.00,2013-10-31 12:20:00,
2013-10-31 07:25:00,26.5,25.0,29.64,SW,215,6.0,7.0,94,0.00,,CLR,0.00,0.00,VWS V14.00,2013-10-31 12:25:00,
2013-10-31 07:30:00,26.7,25.2,29.63,SW,215,5.0,6.0,94,0.00,,CLR,0.00,0.00,VWS V14.00,2013-10-31 12:30:00,
2013-10-31 07:35:00,26.9,25.4,29.63,SW,215,5.0,7.0,94,0.00,,CLR,0.00,0.00,VWS V14.00,2013-10-31 12:35:00,
2013-10-31 07:40:00,26.8,25.3,29.63,SW,215,6.0,7.0,94,0.00,,CLR,0.00,0.00,VWS V14.00,2013-10-31 12:40:00,
2013-10-31 07:45:00,26.6,24.9,29.63,SW,215,6.0,7.0,93,0.00,,CLR,0.00,0.00,VWS V14.00,2013-10-31 12:45:00,
2013-10-31 07:50:00,26.5,24.8,29.63,SW,227,8.0,9.0,93,0.00,,CLR,0.00,0.00,VWS V14.00,2013-10-31 12:50:00,
2013-10-31 07:55:00,26.7,25.2,29.63,WSW,252,6.0,9.0,94,0.00,,CLR,0.00,0.00,VWS V14.00,2013-10-31 12:55:00,
2013-10-31 08:00:00,26.6,24.9,29.62,WSW,258,7.0,8.0,93,0.00,,CLR,0.00,0.00,VWS V14.00,2013-10-31 13:00:00,
2013-10-31 08:07:00,26.4,24.6,29.62,West,264,6.0,9.0,93,0.00,,CLR,0.00,0.00,VWS V14.00,2013-10-31 13:07:00,
2013-10-31 08:12:00,26.5,24.8,29.62,West,265,6.0,9.0,93,0.00,,CLR,0.00,0.00,VWS V14.00,2013-10-31 13:12:00,
2013-10-31 08:17:00,26.4,24.6,29.62,West,265,5.0,9.0,93,0.00,,CLR,0.00,0.00,VWS V14.00,2013-10-31 13:17:00,
2013-10-31 08:22:00,26.3,24.6,29.62,West,265,6.0,9.0,93,0.00,,CLR,0.00,5.00,VWS V14.00,2013-10-31 13:22:00,
2013-10-31 08:27:00,26.5,24.8,29.62,West,268,8.0,9.0,93,0.00,,CLR,0.00,9.00,VWS V14.00,2013-10-31 13:27:00,
2013-10-31 08:32:00,26.7,25.0,29.62,West,280,10.0,10.0,93,0.00,,CLR,0.00,12.00,VWS V14.00,2013-10-31 13:32:00,
2013-10-31 08:37:00,26.9,25.1,29.62,WNW,285,8.0,11.0,93,0.00,,CLR,0.00,16.00,VWS V14.00,2013-10-31 13:37:00,
2013-10-31 08:42:00,27.3,25.5,29.62,WNW,293,7.0,13.0,93,0.00,,CLR,0.00,18.00,VWS V14.00,2013-10-31 13:42:00,
2013-10-31 08:47:00,27.5,25.8,29.62,WNW,294,10.0,13.0,93,0.00,,CLR,0.00,21.00,VWS V14.00,2013-10-31 13:47:00,
2013-10-31 08:53:00,27.5,25.8,29.62,WNW,297,9.0,13.0,93,0.00,,CLR,0.00,26.00,VWS V14.00,2013-10-31 13:53:00,
2013-10-31 08:58:00,27.4,25.6,29.62,WNW,297,12.0,13.0,93,0.00,,CLR,0.00,32.00,VWS V14.00,2013-10-31 13:58:00,
2013-10-31 09:03:00,27.6,25.8,29.62,WNW,301,10.0,12.0,93,0.00,,CLR,0.00,40.00,VWS V14.00,2013-10-31 14:03:00,
2013-10-31 09:08:00,27.8,26.0,29.62,NW,304,10.0,13.0,93,0.00,,CLR,0.00,32.00,VWS V14.00,2013-10-31 14:08:00,
2013-10-31 09:13:00,28.1,26.3,29.62,NW,306,8.0,14.0,93,0.00,,CLR,0.00,70.00,VWS V14.00,2013-10-31 14:13:00,
2013-10-31 09:18:00,28.7,26.9,29.62,NW,307,11.0,14.0,93,0.00,,CLR,0.00,84.00,VWS V14.00,2013-10-31 14:18:00,
2013-10-31 09:23:00,29.0,27.2,29.62,NW,305,9.0,14.0,93,0.00,,CLR,0.00,109.00,VWS V14.00,2013-10-31 14:23:00,
2013-10-31 09:28:00,29.3,27.3,29.62,NW,304,11.0,14.0,92,0.00,,CLR,0.00,118.00,VWS V14.00,2013-10-31 14:28:00,
2013-10-31 09:33:00,29.5,27.5,29.62,WNW,298,10.0,14.0,92,0.00,,CLR,0.00,130.00,VWS V14.00,2013-10-31 14:33:00,
2013-10-31 09:38:00,29.6,27.6,29.63,WNW,298,13.0,15.0,92,0.00,,CLR,0.00,105.00,VWS V14.00,2013-10-31 14:38:00,
2013-10-31 09:43:00,29.9,28.1,29.63,WNW,297,13.0,15.0,93,0.00,,CLR,0.00,149.00,VWS V14.00,2013-10-31 14:43:00,
2013-10-31 09:48:00,30.2,28.4,29.62,WNW,298,11.0,16.0,93,0.00,,CLR,0.00,84.00,VWS V14.00,2013-10-31 14:48:00,
2013-10-31 09:53:00,30.6,28.8,29.62,WNW,301,12.0,16.0,93,0.00,,CLR,0.00,167.00,VWS V14.00,2013-10-31 14:53:00,
2013-10-31 09:58:00,31.1,29.3,29.62,NW,308,15.0,18.0,93,0.00,,CLR,0.00,185.00,VWS V14.00,2013-10-31 14:58:00,
2013-10-31 10:03:00,31.6,29.5,29.62,NW,304,12.0,16.0,92,0.00,,CLR,0.00,153.00,VWS V14.00,2013-10-31 15:03:00,
2013-10-31 10:08:00,31.7,29.6,29.62,WNW,300,15.0,17.0,92,0.00,,CLR,0.00,149.00,VWS V14.00,2013-10-31 15:08:00,
2013-10-31 10:13:00,31.9,29.8,29.62,NW,306,10.0,17.0,92,0.00,,CLR,0.00,171.00,VWS V14.00,2013-10-31 15:13:00,
2013-10-31 10:18:00,32.2,30.1,29.62,WNW,303,12.0,17.0,92,0.00,,CLR,0.00,243.00,VWS V14.00,2013-10-31 15:18:00,
2013-10-31 10:23:00,32.8,30.7,29.62,WNW,303,13.0,17.0,92,0.00,,CLR,0.00,192.00,VWS V14.00,2013-10-31 15:23:00,
2013-10-31 10:28:00,33.0,30.9,29.61,NW,304,13.0,17.0,92,0.00,,CLR,0.00,171.00,VWS V14.00,2013-10-31 15:28:00,
2013-10-31 10:33:00,33.3,31.2,29.62,WNW,298,13.0,15.0,92,0.00,,CLR,0.00,183.00,VWS V14.00,2013-10-31 15:33:00,
2013-10-31 10:38:00,33.6,31.5,29.62,WNW,296,12.0,15.0,92,0.00,,CLR,0.00,155.00,VWS V14.00,2013-10-31 15:38:00,
2013-10-31 10:43:00,33.6,31.3,29.62,WNW,298,13.0,16.0,91,0.00,,CLR,0.00,158.00,VWS V14.00,2013-10-31 15:43:00,
2013-10-31 10:48:00,33.7,31.6,29.62,WNW,294,12.0,16.0,92,0.00,,CLR,0.00,165.00,VWS V14.00,2013-10-31 15:48:00,
2013-10-31 10:53:00,34.0,31.9,29.62,WNW,288,13.0,16.0,92,0.00,,CLR,0.00,190.00,VWS V14.00,2013-10-31 15:53:00,
2013-10-31 10:58:00,34.3,32.2,29.62,WNW,296,14.0,16.0,92,0.00,,CLR,0.00,250.00,VWS V14.00,2013-10-31 15:58:00,
2013-10-31 11:03:00,34.9,32.8,29.62,WNW,298,12.0,15.0,92,0.00,,CLR,0.00,202.00,VWS V14.00,2013-10-31 16:03:00,
2013-10-31 11:08:00,35.3,32.9,29.62,WNW,298,13.0,18.0,91,0.00,,CLR,0.00,199.00,VWS V14.00,2013-10-31 16:08:00,
2013-10-31 11:13:00,35.5,32.9,29.62,WNW,298,11.0,18.0,90,0.00,,CLR,0.00,244.00,VWS V14.00,2013-10-31 16:13:00,
2013-10-31 11:18:00,35.8,33.4,29.62,WNW,302,10.0,18.0,91,0.00,,CLR,0.00,204.00,VWS V14.00,2013-10-31 16:18:00,
2013-10-31 11:23:00,35.8,33.2,29.62,WNW,296,14.0,18.0,90,0.00,,CLR,0.00,192.00,VWS V14.00,2013-10-31 16:23:00,
2013-10-31 11:28:00,35.6,32.7,29.62,NW,311,13.0,20.0,89,0.00,,CLR,0.00,169.00,VWS V14.00,2013-10-31 16:28:00,
2013-10-31 11:33:00,35.7,32.8,29.62,WNW,285,14.0,17.0,89,0.00,,CLR,0.00,179.00,VWS V14.00,2013-10-31 16:33:00,
2013-10-31 11:38:00,35.5,32.6,29.62,WNW,288,13.0,17.0,89,0.00,,CLR,0.00,185.00,VWS V14.00,2013-10-31 16:38:00,
2013-10-31 11:43:00,35.6,33.0,29.61,WNW,294,11.0,17.0,90,0.00,,CLR,0.00,299.00,VWS V14.00,2013-10-31 16:43:00,
2013-10-31 11:48:00,36.2,33.3,29.61,WNW,288,12.0,17.0,89,0.00,,CLR,0.00,448.00,VWS V14.00,2013-10-31 16:48:00,
2013-10-31 11:53:00,36.6,33.4,29.62,WNW,293,15.0,17.0,88,0.00,,CLR,0.00,396.00,VWS V14.00,2013-10-31 16:53:00,
2013-10-31 11:58:00,37.3,33.8,29.62,WNW,293,12.0,17.0,87,0.00,,CLR,0.00,411.00,VWS V14.00,2013-10-31 16:58:00,
2013-10-31 12:04:00,37.7,33.6,29.62,WNW,288,12.0,16.0,85,0.00,,CLR,0.00,230.00,VWS V14.00,2013-10-31 17:04:00,
2013-10-31 12:09:00,37.6,33.5,29.62,WNW,290,11.0,17.0,85,0.00,,CLR,0.00,262.00,VWS V14.00,2013-10-31 17:09:00,
2013-10-31 12:14:00,37.6,33.5,29.62,WNW,298,16.0,17.0,85,0.00,,CLR,0.00,216.00,VWS V14.00,2013-10-31 17:14:00,
2013-10-31 12:19:00,37.9,33.5,29.62,WNW,300,14.0,17.0,84,0.00,,CLR,0.00,279.00,VWS V14.00,2013-10-31 17:19:00,
2013-10-31 12:24:00,39.5,35.1,29.62,NW,307,13.0,17.0,84,0.00,,CLR,0.00,306.00,VWS V14.00,2013-10-31 17:24:00,
2013-10-31 12:29:00,39.6,33.6,29.62,NW,308,13.0,19.0,79,0.00,,CLR,0.00,246.00,VWS V14.00,2013-10-31 17:29:00,
2013-10-31 12:34:00,39.8,33.8,29.62,NW,317,17.0,18.0,79,0.00,,CLR,0.00,366.00,VWS V14.00,2013-10-31 17:34:00,
2013-10-31 12:39:00,40.3,34.3,29.62,NNW,327,12.0,18.0,79,0.00,,CLR,0.00,320.00,VWS V14.00,2013-10-31 17:39:00,
2013-10-31 12:44:00,40.7,34.4,29.62,NW,315,12.0,18.0,78,0.00,,CLR,0.00,410.00,VWS V14.00,2013-10-31 17:44:00,
2013-10-31 12:49:00,41.0,34.3,29.62,NW,313,15.0,20.0,77,0.00,,CLR,0.00,243.00,VWS V14.00,2013-10-31 17:49:00,
2013-10-31 12:54:00,40.7,33.4,29.61,NW,323,16.0,22.0,75,0.00,,CLR,0.00,262.00,VWS V14.00,2013-10-31 17:54:00,
2013-10-31 12:59:00,41.0,34.0,29.61,NW,316,14.0,22.0,76,0.00,,CLR,0.00,330.00,VWS V14.00,2013-10-31 17:59:00,
2013-10-31 13:04:00,41.2,33.9,29.61,WNW,302,16.0,22.0,75,0.00,,CLR,0.00,434.00,VWS V14.00,2013-10-31 18:04:00,
2013-10-31 13:09:00,41.3,34.3,29.61,NW,311,17.0,22.0,76,0.00,,CLR,0.00,452.00,VWS V14.00,2013-10-31 18:09:00,
2013-10-31 13:14:00,41.1,34.1,29.61,WNW,298,16.0,22.0,76,0.00,,CLR,0.00,371.00,VWS V14.00,2013-10-31 18:14:00,
2013-10-31 13:19:00,40.9,33.9,29.61,WNW,293,17.0,22.0,76,0.00,,CLR,0.00,346.00,VWS V14.00,2013-10-31 18:19:00,
2013-10-31 13:24:00,40.7,34.1,29.61,WNW,295,14.0,22.0,77,0.00,,CLR,0.00,406.00,VWS V14.00,2013-10-31 18:24:00,
2013-10-31 13:29:00,40.8,33.8,29.60,NW,309,18.0,23.0,76,0.00,,CLR,0.00,246.00,VWS V14.00,2013-10-31 18:29:00,
2013-10-31 13:34:00,40.6,34.3,29.60,NW,319,17.0,23.0,78,0.00,,CLR,0.00,299.00,VWS V14.00,2013-10-31 18:34:00,
2013-10-31 13:39:00,41.6,35.3,29.60,NW,319,17.0,23.0,78,0.00,,CLR,0.00,496.00,VWS V14.00,2013-10-31 18:39:00,
2013-10-31 13:44:00,41.8,34.5,29.60,NW,304,13.0,23.0,75,0.00,,CLR,0.00,497.00,VWS V14.00,2013-10-31 18:44:00,
2013-10-31 13:49:00,41.6,34.6,29.60,NW,321,15.0,23.0,76,0.00,,CLR,0.00,478.00,VWS V14.00,2013-10-31 18:49:00,
2013-10-31 13:54:00,41.5,34.8,29.60,WNW,288,14.0,23.0,77,0.00,,CLR,0.00,503.00,VWS V14.00,2013-10-31 18:54:00,
2013-10-31 13:59:00,41.4,34.4,29.60,NW,308,12.0,23.0,76,0.00,,CLR,0.00,264.00,VWS V14.00,2013-10-31 18:59:00,
2013-10-31 14:04:00,40.9,34.6,29.60,WNW,292,14.0,19.0,78,0.00,,CLR,0.00,251.00,VWS V14.00,2013-10-31 19:04:00,
2013-10-31 14:09:00,41.0,34.7,29.59,WNW,294,17.0,20.0,78,0.00,,CLR,0.00,250.00,VWS V14.00,2013-10-31 19:09:00,
2013-10-31 14:14:00,41.2,34.5,29.59,WNW,296,11.0,20.0,77,0.00,,CLR,0.00,230.00,VWS V14.00,2013-10-31 19:14:00,
2013-10-31 14:19:00,41.5,34.2,29.59,NW,316,19.0,21.0,75,0.00,,CLR,0.00,258.00,VWS V14.00,2013-10-31 19:19:00,
2013-10-31 14:24:00,41.4,34.1,29.59,WNW,298,14.0,21.0,75,0.00,,CLR,0.00,290.00,VWS V14.00,2013-10-31 19:24:00,
2013-10-31 14:29:00,41.5,34.2,29.59,WNW,301,12.0,14.0,75,0.00,,CLR,0.00,316.00,VWS V14.00,2013-10-31 19:29:00,
2013-10-31 14:34:00,41.5,34.2,29.59,NW,316,13.0,21.0,75,0.00,,CLR,0.00,241.00,VWS V14.00,2013-10-31 19:34:00,
2013-10-31 14:39:00,41.5,34.5,29.59,NW,319,18.0,22.0,76,0.00,,CLR,0.00,225.00,VWS V14.00,2013-10-31 19:39:00,
2013-10-31 14:44:00,41.6,34.6,29.58,WNW,301,12.0,22.0,76,0.00,,CLR,0.00,211.00,VWS V14.00,2013-10-31 19:44:00,
2013-10-31 14:49:00,41.8,34.5,29.58,NW,312,14.0,22.0,75,0.00,,CLR,0.00,199.00,VWS V14.00,2013-10-31 19:49:00,
2013-10-31 14:54:00,41.7,34.7,29.58,NW,323,16.0,22.0,76,0.00,,CLR,0.00,172.00,VWS V14.00,2013-10-31 19:54:00,
2013-10-31 14:59:00,41.7,34.7,29.58,WNW,303,14.0,18.0,76,0.00,,CLR,0.00,156.00,VWS V14.00,2013-10-31 19:59:00,
2013-10-31 15:04:00,41.9,35.2,29.58,NW,312,9.0,18.0,77,0.00,,CLR,0.00,148.00,VWS V14.00,2013-10-31 20:04:00,
2013-10-31 15:10:00,42.1,35.1,29.58,NW,310,9.0,18.0,76,0.00,,CLR,0.00,144.00,VWS V14.00,2013-10-31 20:10:00,
2013-10-31 15:15:00,42.4,35.0,29.58,NW,314,16.0,20.0,75,0.00,,CLR,0.00,142.00,VWS V14.00,2013-10-31 20:15:00,
2013-10-31 15:20:00,42.5,35.5,29.58,NW,313,11.0,20.0,76,0.00,,CLR,0.00,153.00,VWS V14.00,2013-10-31 20:20:00,
2013-10-31 15:25:00,42.6,35.9,29.58,WNW,292,11.0,20.0,77,0.00,,CLR,0.00,160.00,VWS V14.00,2013-10-31 20:25:00,
2013-10-31 15:30:00,42.5,35.5,29.58,WNW,300,12.0,12.0,76,0.00,,CLR,0.00,151.00,VWS V14.00,2013-10-31 20:30:00,
2013-10-31 15:35:00,43.0,35.6,29.58,NW,314,12.0,22.0,75,0.00,,CLR,0.00,137.00,VWS V14.00,2013-10-31 20:35:00,
2013-10-31 15:40:00,43.2,35.5,29.58,NW,321,22.0,22.0,74,0.00,,SCT120,0.00,142.00,VWS V14.00,2013-10-31 20:40:00,
2013-10-31 15:45:00,43.2,35.1,29.58,NW,319,18.0,24.0,73,0.00,,SCT120,0.00,144.00,VWS V14.00,2013-10-31 20:45:00,
2013-10-31 15:50:00,43.2,35.1,29.58,NW,311,14.0,26.0,73,0.00,,SCT120,0.00,169.00,VWS V14.00,2013-10-31 20:50:00,
2013-10-31 15:55:00,43.1,35.0,29.58,NW,324,16.0,26.0,73,0.00,,SCT120,0.00,178.00,VWS V14.00,2013-10-31 20:55:00,
2013-10-31 16:00:00,42.9,34.8,29.58,NNW,337,19.0,19.0,73,0.00,,SCT120,0.00,146.00,VWS V14.00,2013-10-31 21:00:00,
2013-10-31 16:05:00,42.5,34.5,29.58,NW,320,17.0,23.0,73,0.00,,SCT120,0.00,102.00,VWS V14.00,2013-10-31 21:05:00,
2013-10-31 16:10:00,42.1,34.8,29.58,NW,320,13.0,23.0,75,0.00,,SCT120,0.00,102.00,VWS V14.00,2013-10-31 21:10:00,
2013-10-31 16:15:00,42.0,35.0,29.58,NW,309,18.0,23.0,76,0.00,,SCT120,0.00,102.00,VWS V14.00,2013-10-31 21:15:00,
2013-10-31 16:20:00,41.8,35.1,29.59,NW,305,18.0,23.0,77,0.00,,SCT120,0.00,76.00,VWS V14.00,2013-10-31 21:20:00,
2013-10-31 16:25:00,41.5,35.5,29.59,NW,316,14.0,23.0,79,0.00,,SCT120,0.00,49.00,VWS V14.00,2013-10-31 21:25:00,
2013-10-31 16:30:00,41.1,36.0,29.58,NW,316,13.0,14.0,82,0.00,,SCT120,0.00,44.00,VWS V14.00,2013-10-31 21:30:00,
2013-10-31 16:35:00,40.8,36.0,29.58,NW,305,11.0,14.0,83,0.00,,SCT120,0.00,47.00,VWS V14.00,2013-10-31 21:35:00,
2013-10-31 16:40:00,40.7,36.2,29.58,NW,304,6.0,14.0,84,0.00,,OVC100,0.00,42.00,VWS V14.00,2013-10-31 21:40:00,
2013-10-31 16:45:00,40.7,36.5,29.58,NW,304,6.0,14.0,85,0.00,,OVC100,0.00,42.00,VWS V14.00,2013-10-31 21:45:00,
2013-10-31 16:50:00,40.6,36.8,29.58,NW,304,6.0,14.0,86,0.00,,OVC100,0.00,37.00,VWS V14.00,2013-10-31 21:50:00,
2013-10-31 16:55:00,40.6,36.8,29.58,WNW,296,9.0,14.0,86,0.00,,OVC100,0.00,32.00,VWS V14.00,2013-10-31 21:55:00,
2013-10-31 17:00:00,40.7,36.8,29.58,WNW,298,7.0,9.0,86,0.00,,OVC100,0.00,28.00,VWS V14.00,2013-10-31 22:00:00,
2013-10-31 17:05:00,40.7,37.1,29.58,WNW,294,10.0,11.0,87,0.00,,OVC100,0.00,46.00,VWS V14.00,2013-10-31 22:05:00,
2013-10-31 17:10:00,41.0,37.1,29.58,WNW,296,9.0,12.0,86,0.00,,OVC100,0.00,53.00,VWS V14.00,2013-10-31 22:10:00,
2013-10-31 17:15:00,41.1,36.9,29.59,WNW,300,6.0,12.0,85,0.00,,OVC100,0.00,46.00,VWS V14.00,2013-10-31 22:15:00,
2013-10-31 17:20:00,41.3,37.1,29.59,WNW,300,8.0,12.0,85,0.00,,OVC100,0.00,51.00,VWS V14.00,2013-10-31 22:20:00,
2013-10-31 17:25:00,41.4,36.6,29.59,WNW,294,9.0,13.0,83,0.00,,OVC100,0.00,60.00,VWS V14.00,2013-10-31 22:25:00,
2013-10-31 17:30:00,41.6,36.8,29.59,WNW,294,6.0,9.0,83,0.00,,OVC100,0.00,72.00,VWS V14.00,2013-10-31 22:30:00,
2013-10-31 17:35:00,41.7,36.9,29.59,West,277,9.0,11.0,83,0.00,,OVC100,0.00,86.00,VWS V14.00,2013-10-31 22:35:00,
2013-10-31 17:40:00,41.8,37.0,29.59,West,276,7.0,11.0,83,0.00,,-RA,0.00,76.00,VWS V14.00,2013-10-31 22:40:00,
2013-10-31 17:45:00,41.8,36.7,29.59,West,281,9.0,11.0,82,0.00,,-RA,0.00,56.00,VWS V14.00,2013-10-31 22:45:00,
2013-10-31 17:50:00,41.8,36.7,29.59,WNW,282,9.0,11.0,82,0.00,,-RA,0.00,46.00,VWS V14.00,2013-10-31 22:50:00,
2013-10-31 17:55:00,41.9,36.8,29.59,WNW,288,7.0,11.0,82,0.00,,-RA,0.00,47.00,VWS V14.00,2013-10-31 22:55:00,
2013-10-31 18:01:00,42.0,36.6,29.60,WNW,298,12.0,13.0,81,0.00,,-RA,0.00,40.00,VWS V14.00,2013-10-31 23:01:00,
2013-10-31 18:06:00,42.2,36.2,29.60,WNW,296,9.0,14.0,79,0.00,,-RA,0.00,32.00,VWS V14.00,2013-10-31 23:06:00,
2013-10-31 18:11:00,42.1,36.1,29.60,WNW,296,10.0,14.0,79,0.00,,-RA,0.00,26.00,VWS V14.00,2013-10-31 23:11:00,
2013-10-31 18:16:00,42.0,36.0,29.60,WNW,297,9.0,14.0,79,0.00,,-RA,0.00,18.00,VWS V14.00,2013-10-31 23:16:00,
2013-10-31 18:21:00,41.7,36.0,29.60,WNW,297,6.0,14.0,80,0.00,,-RA,0.00,11.00,VWS V14.00,2013-10-31 23:21:00,
2013-10-31 18:26:00,41.6,35.9,29.60,WNW,297,4.0,14.0,80,0.00,,-RA,0.00,5.00,VWS V14.00,2013-10-31 23:26:00,
2013-10-31 18:31:00,41.7,36.0,29.60,WNW,302,7.0,9.0,80,0.00,,-RA,0.00,0.00,VWS V14.00,2013-10-31 23:31:00,
2013-10-31 18:36:00,41.6,35.9,29.60,WNW,302,6.0,9.0,80,0.00,,-RA,0.00,0.00,VWS V14.00,2013-10-31 23:36:00,
2013-10-31 18:41:00,41.3,35.6,29.61,WNW,302,6.0,9.0,80,0.00,,OVC100,0.00,0.00,VWS V14.00,2013-10-31 23:41:00,
2013-10-31 18:46:00,41.2,35.5,29.60,WNW,302,6.0,9.0,80,0.00,,OVC100,0.00,0.00,VWS V14.00,2013-10-31 23:46:00,
2013-10-31 18:51:00,41.2,35.5,29.61,WNW,302,6.0,9.0,80,0.00,,OVC100,0.00,0.00,VWS V14.00,2013-10-31 23:51:00,
2013-10-31 18:56:00,41.1,35.4,29.61,WNW,302,5.0,9.0,80,0.00,,OVC100,0.00,0.00,VWS V14.00,2013-10-31 23:56:00,
2013-10-31 19:01:00,40.8,35.1,29.61,WNW,302,5.0,7.0,80,0.00,,OVC100,0.00,0.00,VWS V14.00,2013-11-01 00:01:00,
2013-10-31 19:06:00,40.7,35.0,29.61,WNW,302,5.0,7.0,80,0.00,,OVC100,0.00,0.00,VWS V14.00,2013-11-01 00:06:00,
2013-10-31 19:11:00,40.6,35.2,29.61,WNW,302,5.0,8.0,81,0.00,,OVC100,0.00,0.00,VWS V14.00,2013-11-01 00:11:00,
2013-10-31 19:16:00,40.3,34.9,29.61,WNW,302,6.0,8.0,81,0.00,,OVC100,0.00,0.00,VWS V14.00,2013-11-01 00:16:00,
2013-10-31 19:21:00,40.2,34.8,29.61,WNW,302,4.0,8.0,81,0.00,,OVC100,0.00,0.00,VWS V14.00,2013-11-01 00:21:00,
2013-10-31 19:26:00,40.1,34.8,29.61,WNW,302,4.0,8.0,81,0.00,,OVC100,0.00,0.00,VWS V14.00,2013-11-01 00:26:00,
2013-10-31 19:31:00,40.0,34.7,29.61,WNW,302,5.0,5.0,81,0.00,,OVC100,0.00,0.00,VWS V14.00,2013-11-01 00:31:00,
2013-10-31 19:36:00,39.7,34.0,29.61,WNW,302,2.0,5.0,80,0.00,,OVC100,0.00,0.00,VWS V14.00,2013-11-01 00:36:00,
2013-10-31 19:41:00,39.3,34.0,29.61,WNW,302,4.0,5.0,81,0.00,,OVC100,0.00,0.00,VWS V14.00,2013-11-01 00:41:00,
2013-10-31 19:46:00,38.8,33.8,29.61,WNW,302,4.0,6.0,82,0.00,,OVC100,0.00,0.00,VWS V14.00,2013-11-01 00:46:00,
2013-10-31 19:51:00,38.3,33.6,29.61,WNW,302,5.0,8.0,83,0.00,,OVC100,0.00,0.00,VWS V14.00,2013-11-01 00:51:00,
2013-10-31 19:56:00,38.2,33.5,29.61,WNW,302,6.0,9.0,83,0.00,,OVC100,0.00,0.00,VWS V14.00,2013-11-01 00:56:00,
2013-10-31 20:01:00,38.1,33.7,29.61,WNW,302,6.0,8.0,84,0.00,,OVC100,0.00,0.00,VWS V14.00,2013-11-01 01:01:00,
2013-10-31 20:06:00,38.1,33.7,29.61,WNW,300,5.0,8.0,84,0.00,,OVC100,0.00,0.00,VWS V14.00,2013-11-01 01:06:00,
2013-10-31 20:11:00,38.3,33.9,29.61,WNW,298,7.0,9.0,84,0.00,,OVC100,0.00,0.00,VWS V14.00,2013-11-01 01:11:00,
2013-10-31 20:16:00,38.4,34.0,29.61,WNW,296,9.0,10.0,84,0.00,,OVC100,0.00,0.00,VWS V14.00,2013-11-01 01:16:00,
2013-10-31 20:21:00,39.1,34.4,29.60,WNW,296,7.0,11.0,83,0.00,,OVC100,0.00,0.00,VWS V14.00,2013-11-01 01:21:00,
2013-10-31 20:26:00,39.5,34.5,29.61,WNW,297,8.0,11.0,82,0.00,,OVC100,0.00,0.00,VWS V14.00,2013-11-01 01:26:00,
2013-10-31 20:31:00,39.6,34.3,29.61,WNW,299,9.0,10.0,81,0.00,,OVC100,0.00,0.00,VWS V14.00,2013-11-01 01:31:00,
2013-10-31 20:36:00,39.8,34.1,29.61,WNW,301,5.0,12.0,80,0.00,,OVC100,0.00,0.00,VWS V14.00,2013-11-01 01:36:00,
2013-10-31 20:41:00,39.7,34.0,29.61,WNW,301,6.0,12.0,80,0.00,,BKN120,0.00,0.00,VWS V14.00,2013-11-01 01:41:00,
2013-10-31 20:46:00,39.3,34.0,29.60,WNW,301,6.0,12.0,81,0.00,,BKN120,0.00,0.00,VWS V14.00,2013-11-01 01:46:00,
2013-10-31 20:52:00,39.0,33.7,29.60,WNW,299,7.0,12.0,81,0.00,,BKN120,0.00,0.00,VWS V14.00,2013-11-01 01:52:00,
2013-10-31 20:57:00,38.7,33.7,29.61,WNW,298,6.0,12.0,82,0.00,,BKN120,0.00,0.00,VWS V14.00,2013-11-01 01:57:00,
2013-10-31 21:02:00,38.6,33.9,29.61,WNW,293,7.0,8.0,83,0.00,,BKN120,0.00,0.00,VWS V14.00,2013-11-01 02:02:00,
2013-10-31 21:07:00,38.5,33.8,29.60,WNW,288,6.0,8.0,83,0.00,,BKN120,0.00,0.00,VWS V14.00,2013-11-01 02:07:00,
2013-10-31 21:12:00,38.6,33.9,29.60,WNW,288,6.0,8.0,83,0.00,,BKN120,0.00,0.00,VWS V14.00,2013-11-01 02:12:00,
2013-10-31 21:17:00,38.9,33.9,29.60,WNW,288,5.0,8.0,82,0.00,,BKN120,0.00,0.00,VWS V14.00,2013-11-01 02:17:00,
2013-10-31 21:22:00,38.9,33.9,29.60,WNW,288,5.0,8.0,82,0.00,,BKN120,0.00,0.00,VWS V14.00,2013-11-01 02:22:00,
2013-10-31 21:27:00,38.8,33.5,29.60,WNW,289,5.0,8.0,81,0.00,,BKN120,0.00,0.00,VWS V14.00,2013-11-01 02:27:00,
2013-10-31 21:32:00,38.6,33.6,29.60,WNW,289,5.0,7.0,82,0.00,,BKN120,0.00,0.00,VWS V14.00,2013-11-01 02:32:00,
2013-10-31 21:37:00,38.7,33.7,29.60,WNW,291,5.0,8.0,82,0.00,,BKN120,0.00,0.00,VWS V14.00,2013-11-01 02:37:00,
2013-10-31 21:42:00,38.6,33.6,29.60,WNW,291,6.0,8.0,82,0.00,,CLR,0.00,0.00,VWS V14.00,2013-11-01 02:42:00,
2013-10-31 21:47:00,38.4,33.4,29.60,WNW,291,3.0,8.0,82,0.00,,CLR,0.00,0.00,VWS V14.00,2013-11-01 02:47:00,
2013-10-31 21:52:00,38.1,33.1,29.60,WNW,291,4.0,8.0,82,0.00,,CLR,0.00,0.00,VWS V14.00,2013-11-01 02:52:00,
2013-10-31 21:57:00,37.8,32.8,29.61,WNW,291,5.0,8.0,82,0.00,,CLR,0.00,0.00,VWS V14.00,2013-11-01 02:57:00,
2013-10-31 22:02:00,37.7,33.0,29.61,WNW,291,4.0,6.0,83,0.00,,CLR,0.00,0.00,VWS V14.00,2013-11-01 03:02:00,
2013-10-31 22:07:00,37.7,33.0,29.61,WNW,291,6.0,7.0,83,0.00,,CLR,0.00,0.00,VWS V14.00,2013-11-01 03:07:00,
2013-10-31 22:12:00,38.4,33.4,29.61,WNW,298,7.0,8.0,82,0.00,,CLR,0.00,0.00,VWS V14.00,2013-11-01 03:12:00,
2013-10-31 22:17:00,39.1,33.5,29.61,WNW,300,6.0,8.0,80,0.00,,CLR,0.00,0.00,VWS V14.00,2013-11-01 03:17:00,
2013-10-31 22:22:00,39.4,33.4,29.61,WNW,302,6.0,9.0,79,0.00,,CLR,0.00,0.00,VWS V14.00,2013-11-01 03:22:00,
2013-10-31 22:27:00,39.6,33.6,29.61,WNW,302,6.0,9.0,79,0.00,,CLR,0.00,0.00,VWS V14.00,2013-11-01 03:27:00,
2013-10-31 22:32:00,39.3,33.3,29.61,WNW,302,6.0,8.0,79,0.00,,CLR,0.00,0.00,VWS V14.00,2013-11-01 03:32:00,
2013-10-31 22:37:00,39.1,33.2,29.61,WNW,303,6.0,8.0,79,0.00,,CLR,0.00,0.00,VWS V14.00,2013-11-01 03:37:00,
2013-10-31 22:42:00,38.9,33.3,29.61,WNW,303,6.0,8.0,80,0.00,,CLR,0.00,0.00,VWS V14.00,2013-11-01 03:42:00,
2013-10-31 22:47:00,38.8,33.2,29.61,WNW,303,5.0,8.0,80,0.00,,CLR,0.00,0.00,VWS V14.00,2013-11-01 03:47:00,
2013-10-31 22:52:00,38.9,33.3,29.61,WNW,303,6.0,9.0,80,0.00,,CLR,0.00,0.00,VWS V14.00,2013-11-01 03:52:00,
2013-10-31 22:57:00,39.1,33.2,29.62,WNW,303,6.0,9.0,79,0.00,,CLR,0.00,0.00,VWS V14.00,2013-11-01 03:57:00,
2013-10-31 23:02:00,39.1,33.2,29.62,NW,304,6.0,8.0,79,0.00,,CLR,0.00,0.00,VWS V14.00,2013-11-01 04:02:00,
2013-10-31 23:03:00,39.1,33.2,29.62,NW,305,5.0,8.0,79,0.00,,CLR,0.00,0.00,VWS V14.00,2013-11-01 04:03:00,
2013-10-31 23:04:00,39.1,33.2,29.62,NW,305,6.0,8.0,79,0.00,,CLR,0.00,0.00,VWS V14.00,2013-11-01 04:04:00,
2013-10-31 23:08:00,39.2,33.2,29.62,NW,306,6.0,9.0,79,0.00,,CLR,0.00,0.00,VWS V14.00,2013-11-01 04:08:00,
2013-10-31 23:13:00,39.2,32.9,29.62,NW,306,3.0,9.0,78,0.00,,CLR,0.00,0.00,VWS V14.00,2013-11-01 04:13:00,
2013-10-31 23:14:00,39.3,33.0,29.62,NW,306,4.0,9.0,78,0.00,,CLR,0.00,0.00,VWS V14.00,2013-11-01 04:14:00,
2013-10-31 23:19:00,39.8,33.2,29.62,NW,305,5.0,9.0,77,0.00,,CLR,0.00,0.00,VWS V14.00,2013-11-01 04:19:00,
2013-10-31 23:24:00,39.9,33.3,29.62,NW,307,5.0,9.0,77,0.00,,CLR,0.00,0.00,VWS V14.00,2013-11-01 04:24:00,
2013-10-31 23:30:00,40.1,33.5,29.63,WNW,292,5.0,6.0,77,0.00,,CLR,0.00,0.00,VWS V14.00,2013-11-01 04:30:00,
2013-10-31 23:35:00,40.1,33.2,29.63,NW,309,4.0,11.0,76,0.00,,CLR,0.00,0.00,VWS V14.00,2013-11-01 04:35:00,
2013-10-31 23:40:00,39.8,32.9,29.63,NW,308,4.0,11.0,76,0.00,,CLR,0.00,0.00,VWS V14.00,2013-11-01 04:40:00,
2013-10-31 23:45:00,39.4,32.8,29.63,NW,307,4.0,11.0,77,0.00,,CLR,0.00,0.00,VWS V14.00,2013-11-01 04:45:00,
2013-10-31 23:50:00,38.9,32.6,29.63,NW,306,4.0,11.0,78,0.00,,CLR,0.00,0.00,VWS V14.00,2013-11-01 04:50:00,
2013-10-31 23:55:00,38.6,32.7,29.63,NW,306,3.0,11.0,79,0.00,,CLR,0.00,0.00,VWS V14.00,2013-11-01 04:55:00,